NJE809M EIDW-EICK
Flight info
| Callsign | NJE809M |
|---|---|
| Flight time | N/A |
| Altitude | 24000 |
| Route | OLONO1N OLONO DCT TISMO TISMO1G |
| Aircraft | E55P/M-SBDFGHJ2RWY/LB2 |
Departure
| Time | 2026-05-04 21:27 |
|---|---|
| Airport | Dublin Airport (EIDW) |
Arrival
| Time | N/A |
|---|---|
| Airport | Cork International Airport (EICK) |
| Time | Latitude | Longitude | Altitude | Speed | Heading |
|---|---|---|---|---|---|
| 2026-05-04 21:15 | 53.42768 | -6.25884 | 245 ft | 0 kts | 274° |
| 2026-05-04 21:23 | 53.42768 | -6.25889 | 245 ft | 1 kts | 274° |
| 2026-05-04 21:23 | 53.42766 | -6.25901 | 245 ft | 3 kts | 231° |
| 2026-05-04 21:23 | 53.42724 | -6.25909 | 245 ft | 7 kts | 172° |
| 2026-05-04 21:24 | 53.42700 | -6.25856 | 245 ft | 7 kts | 98° |
| 2026-05-04 21:24 | 53.42699 | -6.25762 | 245 ft | 8 kts | 82° |
| 2026-05-04 21:24 | 53.42724 | -6.25696 | 245 ft | 6 kts | 48° |
| 2026-05-04 21:24 | 53.42762 | -6.25633 | 245 ft | 10 kts | 46° |
| 2026-05-04 21:25 | 53.42751 | -6.25511 | 246 ft | 15 kts | 163° |
| 2026-05-04 21:25 | 53.42634 | -6.25425 | 245 ft | 21 kts | 159° |
| 2026-05-04 21:25 | 53.42507 | -6.25335 | 246 ft | 18 kts | 155° |
| 2026-05-04 21:25 | 53.42399 | -6.25256 | 245 ft | 16 kts | 157° |
| 2026-05-04 21:26 | 53.42290 | -6.25176 | 245 ft | 17 kts | 158° |
| 2026-05-04 21:26 | 53.42185 | -6.25100 | 246 ft | 15 kts | 156° |
| 2026-05-04 21:26 | 53.42097 | -6.25040 | 245 ft | 12 kts | 159° |
| 2026-05-04 21:26 | 53.42033 | -6.25059 | 246 ft | 12 kts | 251° |
| 2026-05-04 21:27 | 53.42044 | -6.25383 | 246 ft | 59 kts | 275° |
| 2026-05-04 21:27 | 53.42102 | -6.26532 | 265 ft | 134 kts | 273° |
| 2026-05-04 21:27 | 53.42211 | -6.28270 | 829 ft | 165 kts | 279° |
| 2026-05-04 21:27 | 53.42525 | -6.30216 | 1752 ft | 185 kts | 283° |
| 2026-05-04 21:28 | 53.43248 | -6.31917 | 2393 ft | 184 kts | 333° |
| 2026-05-04 21:28 | 53.44297 | -6.32674 | 2988 ft | 146 kts | 306° |
| 2026-05-04 21:28 | 53.44608 | -6.34238 | 3060 ft | 141 kts | 283° |
| 2026-05-04 21:28 | 53.44801 | -6.35712 | 3395 ft | 120 kts | 265° |
| 2026-05-04 21:29 | 53.44729 | -6.36979 | 3683 ft | 96 kts | 262° |
| 2026-05-04 21:29 | 53.44591 | -6.38329 | 3877 ft | 131 kts | 262° |
| 2026-05-04 21:29 | 53.44468 | -6.39886 | 4049 ft | 142 kts | 261° |
| 2026-05-04 21:29 | 53.43987 | -6.41479 | 4245 ft | 166 kts | 236° |
| 2026-05-04 21:30 | 53.43354 | -6.43025 | 4397 ft | 181 kts | 236° |
| 2026-05-04 21:30 | 53.42238 | -6.44205 | 4571 ft | 206 kts | 192° |
| 2026-05-04 21:30 | 53.40747 | -6.43661 | 4759 ft | 239 kts | 157° |
| 2026-05-04 21:30 | 53.39092 | -6.42427 | 5043 ft | 282 kts | 160° |
| 2026-05-04 21:31 | 53.35005 | -6.39730 | 6185 ft | 335 kts | 162° |
| 2026-05-04 21:31 | 53.32845 | -6.38410 | 7332 ft | 338 kts | 163° |
| 2026-05-04 21:31 | 53.30739 | -6.37174 | 8044 ft | 341 kts | 164° |
| 2026-05-04 21:32 | 53.28469 | -6.35871 | 8807 ft | 318 kts | 165° |
| 2026-05-04 21:32 | 53.26481 | -6.34748 | 9426 ft | 316 kts | 165° |
| 2026-05-04 21:32 | 53.24500 | -6.33643 | 10041 ft | 320 kts | 165° |
| 2026-05-04 21:32 | 53.22254 | -6.32398 | 10729 ft | 324 kts | 165° |
| 2026-05-04 21:33 | 53.20118 | -6.31225 | 11376 ft | 327 kts | 166° |
| 2026-05-04 21:33 | 53.18029 | -6.30081 | 12027 ft | 336 kts | 166° |
| 2026-05-04 21:33 | 53.15771 | -6.28843 | 12734 ft | 345 kts | 166° |
| 2026-05-04 21:33 | 53.13554 | -6.27628 | 13417 ft | 352 kts | 166° |
| 2026-05-04 21:34 | 53.12172 | -6.26870 | 13924 ft | 353 kts | 167° |
| 2026-05-04 21:34 | 53.09819 | -6.25578 | 14781 ft | 354 kts | 167° |
| 2026-05-04 21:34 | 53.07478 | -6.24295 | 15631 ft | 354 kts | 168° |
| 2026-05-04 21:34 | 53.05118 | -6.23006 | 16487 ft | 353 kts | 169° |
| 2026-05-04 21:35 | 53.03006 | -6.21855 | 17254 ft | 352 kts | 170° |
| 2026-05-04 21:35 | 53.00691 | -6.20594 | 18099 ft | 349 kts | 171° |
| 2026-05-04 21:35 | 52.98394 | -6.19383 | 18936 ft | 342 kts | 175° |
| 2026-05-04 21:35 | 52.96290 | -6.19411 | 19708 ft | 314 kts | 202° |
| 2026-05-04 21:36 | 52.94499 | -6.21148 | 20538 ft | 295 kts | 228° |
| 2026-05-04 21:36 | 52.93264 | -6.23695 | 21364 ft | 290 kts | 233° |
| 2026-05-04 21:36 | 52.92070 | -6.26370 | 22205 ft | 287 kts | 235° |
| 2026-05-04 21:36 | 52.90950 | -6.29020 | 23032 ft | 283 kts | 236° |
| 2026-05-04 21:37 | 52.89904 | -6.31592 | 23797 ft | 280 kts | 237° |
| 2026-05-04 21:37 | 52.88845 | -6.34265 | 23998 ft | 294 kts | 238° |
| 2026-05-04 21:37 | 52.87722 | -6.37154 | 24028 ft | 312 kts | 238° |
| 2026-05-04 21:37 | 52.86523 | -6.40278 | 24031 ft | 330 kts | 238° |
| 2026-05-04 21:38 | 52.85370 | -6.43310 | 24031 ft | 345 kts | 238° |
| 2026-05-04 21:38 | 52.84125 | -6.46596 | 24151 ft | 353 kts | 238° |
| 2026-05-04 21:38 | 52.82818 | -6.50062 | 24045 ft | 351 kts | 238° |
| 2026-05-04 21:38 | 52.81529 | -6.53481 | 24027 ft | 348 kts | 238° |
| 2026-05-04 21:39 | 52.80238 | -6.56908 | 24024 ft | 344 kts | 238° |
| 2026-05-04 21:39 | 52.78970 | -6.60273 | 24023 ft | 341 kts | 239° |
| 2026-05-04 21:39 | 52.77697 | -6.63650 | 24022 ft | 339 kts | 238° |
| 2026-05-04 21:39 | 52.76443 | -6.66970 | 24030 ft | 336 kts | 238° |
| 2026-05-04 21:40 | 52.75250 | -6.70131 | 24033 ft | 335 kts | 238° |
| 2026-05-04 21:40 | 52.74098 | -6.73179 | 24033 ft | 333 kts | 238° |
| 2026-05-04 21:40 | 52.72932 | -6.76258 | 24032 ft | 332 kts | 238° |
| 2026-05-04 21:40 | 52.71679 | -6.79204 | 24029 ft | 331 kts | 233° |
| 2026-05-04 21:41 | 52.70371 | -6.82033 | 24031 ft | 330 kts | 233° |
| 2026-05-04 21:41 | 52.69004 | -6.84978 | 24031 ft | 329 kts | 233° |
| 2026-05-04 21:41 | 52.67598 | -6.87996 | 24030 ft | 328 kts | 233° |
| 2026-05-04 21:41 | 52.66182 | -6.91030 | 24030 ft | 328 kts | 233° |
| 2026-05-04 21:42 | 52.64789 | -6.94009 | 24029 ft | 327 kts | 233° |
| 2026-05-04 21:42 | 52.63435 | -6.96903 | 24029 ft | 326 kts | 233° |
| 2026-05-04 21:42 | 52.62084 | -6.99782 | 24028 ft | 326 kts | 233° |
| 2026-05-04 21:42 | 52.60661 | -7.02812 | 24028 ft | 325 kts | 234° |
| 2026-05-04 21:43 | 52.59259 | -7.05795 | 24027 ft | 325 kts | 234° |
| 2026-05-04 21:43 | 52.57906 | -7.08666 | 24027 ft | 325 kts | 234° |
| 2026-05-04 21:43 | 52.56497 | -7.11657 | 24026 ft | 324 kts | 234° |
| 2026-05-04 21:43 | 52.55236 | -7.14332 | 24026 ft | 324 kts | 234° |
| 2026-05-04 21:44 | 52.53868 | -7.17228 | 24026 ft | 324 kts | 234° |
| 2026-05-04 21:44 | 52.52588 | -7.19935 | 24025 ft | 324 kts | 234° |
| 2026-05-04 21:44 | 52.51185 | -7.22899 | 24025 ft | 324 kts | 234° |
| 2026-05-04 21:44 | 52.49771 | -7.25884 | 24024 ft | 324 kts | 234° |
| 2026-05-04 21:45 | 52.48395 | -7.28786 | 24024 ft | 324 kts | 234° |
| 2026-05-04 21:45 | 52.46997 | -7.31727 | 24030 ft | 323 kts | 234° |
| 2026-05-04 21:45 | 52.45604 | -7.34657 | 24037 ft | 323 kts | 234° |
| 2026-05-04 21:45 | 52.44208 | -7.37591 | 24040 ft | 323 kts | 234° |
| 2026-05-04 21:46 | 52.42812 | -7.40522 | 24043 ft | 323 kts | 234° |
| 2026-05-04 21:46 | 52.41560 | -7.43145 | 24046 ft | 323 kts | 234° |
| 2026-05-04 21:46 | 52.40364 | -7.45650 | 24047 ft | 322 kts | 234° |